Aviation Digital Data Service (ADDS)

Output produced by METARs form (1547 UTC 03 July 2020)
found at http://aviationweather.gov/metar/data/
 
METAR text: ETNT 031520Z 25010KT 9999 FEW033 BKN080 20/11 Q1013 BLU
Conditions at: ETNT (WITTMUNDHAVEN(GA, DE) observed 1520 UTC 03 July 2020
Temperature: 20.0°C (68°F)
Dewpoint: 11.0°C (52°F) [RH = 56%]
Pressure (altimeter): 29.91 inches Hg (1013.0 mb)
Winds: from the WSW (250 degrees) at 12 MPH (10 knots; 5.1 m/s)
Visibility: 6 or more miles (10+ km)
Ceiling: 8000 feet AGL
Clouds: few clouds at 3300 feet AGL
broken clouds at 8000 feet AGL
Weather: no significant weather observed at this time